Christian Reinauer — WDA6472 — position and weather

sailwx.info

Track history (hours):
 
Tides and Currents Weather Stations Pressure Air Temp Water Temp Dewpoint Dewpoint Depression Visibility Wind Speed Wind Dir Waves Ship Positions

Christian Reinauer

More information available from US FCC via Universal Licensing System and Coast Guard Vessel Documentation Center.

Last reported at 2014-Jul-29 18:22 UTC. Time now 2014-Jul-29 18:51 UTC.
Position N 26°05' W 080°07'.

Length 170 m; draft 6.5 m.

Type: Ship (hazmat cat B). MMSI: 366832740.

Date/timePositionNaut miles runAvg speedWind from/ knotsBaromVisibWave heightAir tempDewpointWater temp
2014-Jul-29 18:22N 26°05' W 080°07'0 0.0
2014-Jul-29 17:31N 26°05' W 080°07'0 0.0
2014-Jul-29 16:22N 26°05' W 080°07'0 0.0
2014-Jul-29 15:33N 26°05' W 080°07'0 0.0
2014-Jul-29 14:33N 26°05' W 080°07'1 1.3
2014-Jul-29 13:33N 26°06' W 080°06'1212.5
2014-Jul-29 12:34N 25°54' W 080°01'1414.5
2014-Jul-29 11:34N 25°40' W 079°56'186 4.8
2014-Jul-27 21:07N 27°42' W 082°33'5 8.6
2014-Jul-27 20:33N 27°47' W 082°33'4 4.4
2014-Jul-27 19:33N 27°52' W 082°33'0 0.0
2014-Jul-27 18:31N 27°52' W 082°33'0 0.0
2014-Jul-27 17:31N 27°52' W 082°33'0 0.0
2014-Jul-27 16:25N 27°52' W 082°33'0 0.0
2014-Jul-27 15:31N 27°52' W 082°33'0 0.0
2014-Jul-27 14:31N 27°52' W 082°33'0 0.0
2014-Jul-27 13:31N 27°52' W 082°33'0 0.0
2014-Jul-27 12:31N 27°52' W 082°33'0 0.0
2014-Jul-27 11:31N 27°52' W 082°33'0 0.0
2014-Jul-27 10:31N 27°52' W 082°33'0 0.0
2014-Jul-27 09:31N 27°52' W 082°33'0 0.0
2014-Jul-27 08:31N 27°52' W 082°33'0 0.0
2014-Jul-27 07:31N 27°52' W 082°33'0 0.0
2014-Jul-27 06:31N 27°52' W 082°33'0 0.0
2014-Jul-27 05:31N 27°52' W 082°33'0 0.0
2014-Jul-27 04:31N 27°52' W 082°33'0 0.0
2014-Jul-27 03:33N 27°52' W 082°33'2 2.1
2014-Jul-27 02:33N 27°50' W 082°34'6 5.6
2014-Jul-27 01:33N 27°45' W 082°32'  
2014-Jul-20 01:29N 25°38' W 080°03'7 8.0
2014-Jul-20 00:33N 25°45' W 080°03'9 9.0
2014-Jul-19 23:33N 25°54' W 080°04'1111.3
2014-Jul-19 22:33N 26°05' W 080°05'2 1.9
2014-Jul-19 21:30N 26°05' W 080°07'0 0.0
2014-Jul-19 20:30N 26°05' W 080°07'0 0.0
2014-Jul-19 19:30N 26°05' W 080°07'0 0.0
2014-Jul-19 18:30N 26°05' W 080°07'  
Track history (hours):
 
Tides and Currents Weather Stations Pressure Air Temp Water Temp Dewpoint Dewpoint Depression Visibility Wind Speed Wind Dir Waves Ship Positions

Christian Reinauer

More information available from US FCC via Universal Licensing System and Coast Guard Vessel Documentation Center.

Last reported at 2014-Jul-29 18:22 UTC. Time now 2014-Jul-29 18:51 UTC.
Position N 26°05' W 080°07'.

Length 170 m; draft 6.5 m.

Type: Ship (hazmat cat B). MMSI: 366832740.

Date/timePositionNaut miles runAvg speedWind from/ knotsBaromVisibWave heightAir tempDewpointWater temp
2014-Jul-29 18:22N 26°05' W 080°07'0 0.0
2014-Jul-29 17:31N 26°05' W 080°07'0 0.0
2014-Jul-29 16:22N 26°05' W 080°07'0 0.0
2014-Jul-29 15:33N 26°05' W 080°07'0 0.0
2014-Jul-29 14:33N 26°05' W 080°07'1 1.3
2014-Jul-29 13:33N 26°06' W 080°06'1212.5
2014-Jul-29 12:34N 25°54' W 080°01'1414.5
2014-Jul-29 11:34N 25°40' W 079°56'186 4.8
2014-Jul-27 21:07N 27°42' W 082°33'5 8.6
2014-Jul-27 20:33N 27°47' W 082°33'4 4.4
2014-Jul-27 19:33N 27°52' W 082°33'0 0.0
2014-Jul-27 18:31N 27°52' W 082°33'0 0.0
2014-Jul-27 17:31N 27°52' W 082°33'0 0.0
2014-Jul-27 16:25N 27°52' W 082°33'0 0.0
2014-Jul-27 15:31N 27°52' W 082°33'0 0.0
2014-Jul-27 14:31N 27°52' W 082°33'0 0.0
2014-Jul-27 13:31N 27°52' W 082°33'0 0.0
2014-Jul-27 12:31N 27°52' W 082°33'0 0.0
2014-Jul-27 11:31N 27°52' W 082°33'0 0.0
2014-Jul-27 10:31N 27°52' W 082°33'0 0.0
2014-Jul-27 09:31N 27°52' W 082°33'0 0.0
2014-Jul-27 08:31N 27°52' W 082°33'0 0.0
2014-Jul-27 07:31N 27°52' W 082°33'0 0.0
2014-Jul-27 06:31N 27°52' W 082°33'0 0.0
2014-Jul-27 05:31N 27°52' W 082°33'0 0.0
2014-Jul-27 04:31N 27°52' W 082°33'0 0.0
2014-Jul-27 03:33N 27°52' W 082°33'2 2.1
2014-Jul-27 02:33N 27°50' W 082°34'6 5.6
2014-Jul-27 01:33N 27°45' W 082°32'  
2014-Jul-20 01:29N 25°38' W 080°03'7 8.0
2014-Jul-20 00:33N 25°45' W 080°03'9 9.0
2014-Jul-19 23:33N 25°54' W 080°04'1111.3
2014-Jul-19 22:33N 26°05' W 080°05'2 1.9
2014-Jul-19 21:30N 26°05' W 080°07'0 0.0
2014-Jul-19 20:30N 26°05' W 080°07'0 0.0
2014-Jul-19 19:30N 26°05' W 080°07'0 0.0
2014-Jul-19 18:30N 26°05' W 080°07'  

Dump ship's entire track history